sensor_id;sensor_type;location;lat;lon;timestamp;P1;durP1;ratioP1;P2;durP2;ratioP2
55312;SDS011;46892;45.668;11.756;2022-08-19T00:01:50;5.63;;;1.70;;
55312;SDS011;46892;45.668;11.756;2022-08-19T00:04:17;5.30;;;1.87;;
55312;SDS011;46892;45.668;11.756;2022-08-19T00:06:45;4.07;;;1.80;;
55312;SDS011;46892;45.668;11.756;2022-08-19T00:09:12;7.57;;;1.97;;
55312;SDS011;46892;45.668;11.756;2022-08-19T00:11:39;5.10;;;1.67;;
55312;SDS011;46892;45.668;11.756;2022-08-19T00:14:06;6.07;;;2.27;;
55312;SDS011;46892;45.668;11.756;2022-08-19T00:16:35;6.90;;;2.23;;
55312;SDS011;46892;45.668;11.756;2022-08-19T00:19:02;5.57;;;2.17;;
55312;SDS011;46892;45.668;11.756;2022-08-19T00:21:28;6.03;;;1.90;;
55312;SDS011;46892;45.668;11.756;2022-08-19T00:23:56;5.03;;;2.10;;
55312;SDS011;46892;45.668;11.756;2022-08-19T00:26:23;4.83;;;2.00;;
55312;SDS011;46892;45.668;11.756;2022-08-19T00:28:50;5.50;;;2.23;;
55312;SDS011;46892;45.668;11.756;2022-08-19T00:31:16;6.80;;;2.00;;
55312;SDS011;46892;45.668;11.756;2022-08-19T00:33:42;5.43;;;1.93;;
55312;SDS011;46892;45.668;11.756;2022-08-19T00:36:08;6.37;;;1.93;;
55312;SDS011;46892;45.668;11.756;2022-08-19T00:38:34;6.60;;;2.37;;
55312;SDS011;46892;45.668;11.756;2022-08-19T00:41:01;8.27;;;2.10;;
55312;SDS011;46892;45.668;11.756;2022-08-19T00:43:27;10.37;;;2.60;;
55312;SDS011;46892;45.668;11.756;2022-08-19T00:45:53;9.60;;;3.13;;
55312;SDS011;46892;45.668;11.756;2022-08-19T00:48:20;8.17;;;2.90;;
55312;SDS011;46892;45.668;11.756;2022-08-19T00:50:47;7.87;;;2.60;;
55312;SDS011;46892;45.668;11.756;2022-08-19T00:53:15;7.70;;;2.43;;
55312;SDS011;46892;45.668;11.756;2022-08-19T00:55:47;6.43;;;2.80;;
55312;SDS011;46892;45.668;11.756;2022-08-19T00:58:16;7.50;;;2.70;;
55312;SDS011;46892;45.668;11.756;2022-08-19T01:00:45;8.00;;;2.60;;
55312;SDS011;46892;45.668;11.756;2022-08-19T01:03:13;7.37;;;2.83;;
55312;SDS011;46892;45.668;11.756;2022-08-19T01:05:42;6.90;;;2.40;;
55312;SDS011;46892;45.668;11.756;2022-08-19T01:08:09;8.83;;;2.43;;
55312;SDS011;46892;45.668;11.756;2022-08-19T01:10:37;7.30;;;2.43;;
55312;SDS011;46892;45.668;11.756;2022-08-19T01:13:06;10.40;;;2.93;;
55312;SDS011;46892;45.668;11.756;2022-08-19T01:15:34;10.70;;;2.80;;
55312;SDS011;46892;45.668;11.756;2022-08-19T01:18:06;9.30;;;3.10;;
55312;SDS011;46892;45.668;11.756;2022-08-19T01:20:34;9.73;;;3.57;;
55312;SDS011;46892;45.668;11.756;2022-08-19T01:23:00;10.27;;;3.30;;
55312;SDS011;46892;45.668;11.756;2022-08-19T01:25:31;7.50;;;3.13;;
55312;SDS011;46892;45.668;11.756;2022-08-19T01:28:01;8.00;;;3.00;;
55312;SDS011;46892;45.668;11.756;2022-08-19T01:30:29;10.77;;;3.53;;
55312;SDS011;46892;45.668;11.756;2022-08-19T01:32:57;10.03;;;3.20;;
55312;SDS011;46892;45.668;11.756;2022-08-19T01:35:25;11.27;;;3.47;;
55312;SDS011;46892;45.668;11.756;2022-08-19T01:37:54;8.33;;;3.80;;
55312;SDS011;46892;45.668;11.756;2022-08-19T01:40:26;12.65;;;3.65;;
55312;SDS011;46892;45.668;11.756;2022-08-19T01:42:56;9.50;;;3.63;;
55312;SDS011;46892;45.668;11.756;2022-08-19T01:45:22;11.40;;;3.83;;
55312;SDS011;46892;45.668;11.756;2022-08-19T01:47:50;7.97;;;3.50;;
55312;SDS011;46892;45.668;11.756;2022-08-19T01:50:16;7.80;;;3.30;;
55312;SDS011;46892;45.668;11.756;2022-08-19T01:52:43;9.57;;;3.80;;
55312;SDS011;46892;45.668;11.756;2022-08-19T01:55:11;8.37;;;3.30;;
55312;SDS011;46892;45.668;11.756;2022-08-19T01:57:39;6.25;;;2.80;;
55312;SDS011;46892;45.668;11.756;2022-08-19T02:00:10;9.63;;;3.00;;
55312;SDS011;46892;45.668;11.756;2022-08-19T02:02:40;4.87;;;2.50;;
55312;SDS011;46892;45.668;11.756;2022-08-19T02:05:06;10.23;;;2.97;;
55312;SDS011;46892;45.668;11.756;2022-08-19T02:07:33;11.63;;;3.67;;
55312;SDS011;46892;45.668;11.756;2022-08-19T02:10:02;7.60;;;3.13;;
55312;SDS011;46892;45.668;11.756;2022-08-19T02:12:29;11.43;;;3.97;;
55312;SDS011;46892;45.668;11.756;2022-08-19T02:14:54;6.67;;;3.20;;
55312;SDS011;46892;45.668;11.756;2022-08-19T02:17:20;8.57;;;3.30;;
55312;SDS011;46892;45.668;11.756;2022-08-19T02:19:46;7.10;;;3.27;;
55312;SDS011;46892;45.668;11.756;2022-08-19T02:22:13;8.57;;;3.53;;
55312;SDS011;46892;45.668;11.756;2022-08-19T02:24:39;11.50;;;3.77;;
55312;SDS011;46892;45.668;11.756;2022-08-19T02:27:05;9.73;;;3.67;;
55312;SDS011;46892;45.668;11.756;2022-08-19T02:29:30;10.67;;;3.47;;
55312;SDS011;46892;45.668;11.756;2022-08-19T02:31:56;9.50;;;4.27;;
55312;SDS011;46892;45.668;11.756;2022-08-19T02:34:23;9.43;;;4.00;;
55312;SDS011;46892;45.668;11.756;2022-08-19T02:36:50;8.87;;;3.00;;
55312;SDS011;46892;45.668;11.756;2022-08-19T02:39:16;11.13;;;3.33;;
55312;SDS011;46892;45.668;11.756;2022-08-19T02:41:42;7.53;;;2.43;;
55312;SDS011;46892;45.668;11.756;2022-08-19T02:44:08;7.47;;;2.73;;
55312;SDS011;46892;45.668;11.756;2022-08-19T02:46:34;5.47;;;2.00;;
55312;SDS011;46892;45.668;11.756;2022-08-19T02:49:02;5.90;;;2.33;;
55312;SDS011;46892;45.668;11.756;2022-08-19T02:51:34;5.47;;;2.27;;
55312;SDS011;46892;45.668;11.756;2022-08-19T02:54:02;4.87;;;1.90;;
55312;SDS011;46892;45.668;11.756;2022-08-19T02:56:29;6.43;;;1.67;;
55312;SDS011;46892;45.668;11.756;2022-08-19T02:58:56;6.13;;;1.73;;
55312;SDS011;46892;45.668;11.756;2022-08-19T03:01:27;5.93;;;1.50;;
55312;SDS011;46892;45.668;11.756;2022-08-19T03:03:55;5.87;;;2.17;;
55312;SDS011;46892;45.668;11.756;2022-08-19T03:06:21;4.87;;;1.97;;
55312;SDS011;46892;45.668;11.756;2022-08-19T03:08:47;7.77;;;1.87;;
55312;SDS011;46892;45.668;11.756;2022-08-19T03:11:16;5.97;;;2.00;;
55312;SDS011;46892;45.668;11.756;2022-08-19T03:13:44;8.07;;;2.20;;
55312;SDS011;46892;45.668;11.756;2022-08-19T03:16:10;4.83;;;1.90;;
55312;SDS011;46892;45.668;11.756;2022-08-19T03:18:36;5.23;;;1.30;;
55312;SDS011;46892;45.668;11.756;2022-08-19T03:21:02;7.50;;;2.13;;
55312;SDS011;46892;45.668;11.756;2022-08-19T03:23:29;8.63;;;2.40;;
55312;SDS011;46892;45.668;11.756;2022-08-19T03:25:54;6.30;;;1.70;;
55312;SDS011;46892;45.668;11.756;2022-08-19T03:28:20;8.20;;;1.40;;
55312;SDS011;46892;45.668;11.756;2022-08-19T03:31:00;5.73;;;1.70;;
55312;SDS011;46892;45.668;11.756;2022-08-19T03:33:32;4.03;;;1.47;;
55312;SDS011;46892;45.668;11.756;2022-08-19T03:36:03;3.60;;;1.20;;
55312;SDS011;46892;45.668;11.756;2022-08-19T03:38:37;4.10;;;1.43;;
55312;SDS011;46892;45.668;11.756;2022-08-19T03:41:14;4.87;;;1.50;;
55312;SDS011;46892;45.668;11.756;2022-08-19T03:43:44;5.80;;;1.60;;
55312;SDS011;46892;45.668;11.756;2022-08-19T03:46:18;5.75;;;1.48;;
55312;SDS011;46892;45.668;11.756;2022-08-19T03:48:46;4.57;;;1.93;;
55312;SDS011;46892;45.668;11.756;2022-08-19T03:51:18;5.30;;;1.47;;
55312;SDS011;46892;45.668;11.756;2022-08-19T03:53:56;7.27;;;1.67;;
55312;SDS011;46892;45.668;11.756;2022-08-19T03:56:24;5.60;;;1.50;;
55312;SDS011;46892;45.668;11.756;2022-08-19T03:58:52;6.57;;;1.63;;
55312;SDS011;46892;45.668;11.756;2022-08-19T04:01:19;5.13;;;1.80;;
55312;SDS011;46892;45.668;11.756;2022-08-19T04:03:47;4.30;;;1.30;;
55312;SDS011;46892;45.668;11.756;2022-08-19T04:08:47;6.23;;;1.57;;
55312;SDS011;46892;45.668;11.756;2022-08-19T04:11:19;6.33;;;1.53;;
55312;SDS011;46892;45.668;11.756;2022-08-19T04:13:49;5.97;;;1.63;;
55312;SDS011;46892;45.668;11.756;2022-08-19T04:16:19;4.05;;;1.45;;
55312;SDS011;46892;45.668;11.756;2022-08-19T04:18:49;4.45;;;1.50;;
55312;SDS011;46892;45.668;11.756;2022-08-19T04:21:16;7.03;;;1.47;;
55312;SDS011;46892;45.668;11.756;2022-08-19T04:23:43;3.23;;;1.20;;
55312;SDS011;46892;45.668;11.756;2022-08-19T04:26:16;4.90;;;1.40;;
55312;SDS011;46892;45.668;11.756;2022-08-19T04:28:43;6.30;;;1.73;;
55312;SDS011;46892;45.668;11.756;2022-08-19T04:31:22;5.07;;;1.33;;
55312;SDS011;46892;45.668;11.756;2022-08-19T04:33:51;4.87;;;1.33;;
55312;SDS011;46892;45.668;11.756;2022-08-19T04:36:23;4.63;;;1.50;;
55312;SDS011;46892;45.668;11.756;2022-08-19T04:38:53;3.07;;;1.10;;
55312;SDS011;46892;45.668;11.756;2022-08-19T04:41:23;6.97;;;1.50;;
55312;SDS011;46892;45.668;11.756;2022-08-19T04:44:08;6.37;;;1.60;;
55312;SDS011;46892;45.668;11.756;2022-08-19T04:46:35;10.63;;;2.40;;
55312;SDS011;46892;45.668;11.756;2022-08-19T04:49:02;7.93;;;1.97;;
55312;SDS011;46892;45.668;11.756;2022-08-19T04:51:30;7.33;;;1.67;;
55312;SDS011;46892;45.668;11.756;2022-08-19T04:53:56;6.80;;;2.27;;
55312;SDS011;46892;45.668;11.756;2022-08-19T04:56:23;5.17;;;1.87;;
55312;SDS011;46892;45.668;11.756;2022-08-19T04:58:51;4.70;;;1.47;;
55312;SDS011;46892;45.668;11.756;2022-08-19T05:01:18;8.60;;;1.60;;
55312;SDS011;46892;45.668;11.756;2022-08-19T05:03:48;4.87;;;2.10;;
55312;SDS011;46892;45.668;11.756;2022-08-19T05:06:15;6.73;;;2.17;;
55312;SDS011;46892;45.668;11.756;2022-08-19T05:08:43;7.40;;;2.60;;
55312;SDS011;46892;45.668;11.756;2022-08-19T05:11:14;6.70;;;2.30;;
55312;SDS011;46892;45.668;11.756;2022-08-19T05:13:40;7.33;;;2.60;;
55312;SDS011;46892;45.668;11.756;2022-08-19T05:16:07;4.23;;;1.93;;
55312;SDS011;46892;45.668;11.756;2022-08-19T05:18:34;5.10;;;1.80;;
55312;SDS011;46892;45.668;11.756;2022-08-19T05:21:32;11.20;;;2.90;;
55312;SDS011;46892;45.668;11.756;2022-08-19T05:24:17;10.07;;;2.90;;
55312;SDS011;46892;45.668;11.756;2022-08-19T05:26:45;10.03;;;3.60;;
55312;SDS011;46892;45.668;11.756;2022-08-19T05:29:13;10.13;;;3.63;;
55312;SDS011;46892;45.668;11.756;2022-08-19T05:31:40;12.33;;;4.20;;
55312;SDS011;46892;45.668;11.756;2022-08-19T05:34:06;10.47;;;4.63;;
55312;SDS011;46892;45.668;11.756;2022-08-19T05:36:36;11.87;;;4.00;;
55312;SDS011;46892;45.668;11.756;2022-08-19T05:39:05;6.37;;;3.57;;
55312;SDS011;46892;45.668;11.756;2022-08-19T05:41:32;8.73;;;3.67;;
55312;SDS011;46892;45.668;11.756;2022-08-19T05:43:58;7.90;;;3.33;;
55312;SDS011;46892;45.668;11.756;2022-08-19T05:46:26;8.23;;;3.40;;
55312;SDS011;46892;45.668;11.756;2022-08-19T05:48:52;8.70;;;3.23;;
55312;SDS011;46892;45.668;11.756;2022-08-19T05:51:21;5.43;;;2.33;;
55312;SDS011;46892;45.668;11.756;2022-08-19T05:53:48;6.37;;;3.00;;
55312;SDS011;46892;45.668;11.756;2022-08-19T05:56:14;6.40;;;2.70;;
55312;SDS011;46892;45.668;11.756;2022-08-19T05:58:42;8.00;;;2.60;;
55312;SDS011;46892;45.668;11.756;2022-08-19T06:01:10;4.97;;;2.37;;
55312;SDS011;46892;45.668;11.756;2022-08-19T06:03:41;8.43;;;2.97;;
55312;SDS011;46892;45.668;11.756;2022-08-19T06:06:07;9.23;;;2.90;;
55312;SDS011;46892;45.668;11.756;2022-08-19T06:08:34;8.93;;;3.53;;
55312;SDS011;46892;45.668;11.756;2022-08-19T06:11:12;5.90;;;2.45;;
55312;SDS011;46892;45.668;11.756;2022-08-19T06:13:44;6.32;;;2.38;;
55312;SDS011;46892;45.668;11.756;2022-08-19T06:16:12;7.78;;;2.10;;
55312;SDS011;46892;45.668;11.756;2022-08-19T06:18:45;4.50;;;1.80;;
55312;SDS011;46892;45.668;11.756;2022-08-19T06:21:11;5.53;;;2.23;;
55312;SDS011;46892;45.668;11.756;2022-08-19T06:23:37;6.90;;;2.23;;
55312;SDS011;46892;45.668;11.756;2022-08-19T06:26:03;7.90;;;2.17;;
55312;SDS011;46892;45.668;11.756;2022-08-19T06:28:29;5.83;;;2.60;;
55312;SDS011;46892;45.668;11.756;2022-08-19T06:30:55;4.83;;;2.23;;
55312;SDS011;46892;45.668;11.756;2022-08-19T06:33:20;7.47;;;2.60;;
55312;SDS011;46892;45.668;11.756;2022-08-19T06:35:46;7.20;;;2.23;;
55312;SDS011;46892;45.668;11.756;2022-08-19T06:38:12;6.30;;;2.07;;
55312;SDS011;46892;45.668;11.756;2022-08-19T06:40:37;7.47;;;2.30;;
55312;SDS011;46892;45.668;11.756;2022-08-19T06:43:03;5.63;;;2.07;;
55312;SDS011;46892;45.668;11.756;2022-08-19T06:45:30;5.87;;;2.17;;
55312;SDS011;46892;45.668;11.756;2022-08-19T06:47:56;5.37;;;2.07;;
55312;SDS011;46892;45.668;11.756;2022-08-19T06:50:23;3.97;;;2.13;;
55312;SDS011;46892;45.668;11.756;2022-08-19T06:52:49;5.43;;;2.03;;
55312;SDS011;46892;45.668;11.756;2022-08-19T06:55:15;3.97;;;1.60;;
55312;SDS011;46892;45.668;11.756;2022-08-19T06:57:40;5.53;;;1.93;;
55312;SDS011;46892;45.668;11.756;2022-08-19T07:00:08;9.20;;;1.80;;
55312;SDS011;46892;45.668;11.756;2022-08-19T07:02:39;4.63;;;1.57;;
55312;SDS011;46892;45.668;11.756;2022-08-19T07:05:06;7.63;;;2.10;;
55312;SDS011;46892;45.668;11.756;2022-08-19T07:07:34;6.40;;;2.23;;
55312;SDS011;46892;45.668;11.756;2022-08-19T07:10:00;7.23;;;1.90;;
55312;SDS011;46892;45.668;11.756;2022-08-19T07:12:27;6.23;;;1.70;;
55312;SDS011;46892;45.668;11.756;2022-08-19T07:14:56;6.20;;;1.45;;
55312;SDS011;46892;45.668;11.756;2022-08-19T07:17:22;6.80;;;1.93;;
55312;SDS011;46892;45.668;11.756;2022-08-19T07:19:48;4.80;;;1.70;;
55312;SDS011;46892;45.668;11.756;2022-08-19T07:22:15;6.63;;;2.60;;
55312;SDS011;46892;45.668;11.756;2022-08-19T07:24:42;8.83;;;3.60;;
55312;SDS011;46892;45.668;11.756;2022-08-19T07:27:07;9.73;;;4.63;;
55312;SDS011;46892;45.668;11.756;2022-08-19T07:29:35;10.47;;;3.83;;
55312;SDS011;46892;45.668;11.756;2022-08-19T07:32:01;8.63;;;3.20;;
55312;SDS011;46892;45.668;11.756;2022-08-19T07:34:28;6.53;;;2.40;;
55312;SDS011;46892;45.668;11.756;2022-08-19T07:36:55;8.17;;;2.10;;
55312;SDS011;46892;45.668;11.756;2022-08-19T07:39:23;6.88;;;1.80;;
55312;SDS011;46892;45.668;11.756;2022-08-19T07:41:54;5.87;;;2.10;;
55312;SDS011;46892;45.668;11.756;2022-08-19T07:44:22;7.07;;;2.10;;
55312;SDS011;46892;45.668;11.756;2022-08-19T07:46:50;7.50;;;2.27;;
55312;SDS011;46892;45.668;11.756;2022-08-19T07:49:18;5.32;;;2.13;;
55312;SDS011;46892;45.668;11.756;2022-08-19T07:52:04;5.73;;;2.10;;
55312;SDS011;46892;45.668;11.756;2022-08-19T07:54:34;5.77;;;1.97;;
55312;SDS011;46892;45.668;11.756;2022-08-19T07:57:01;7.60;;;2.47;;
55312;SDS011;46892;45.668;11.756;2022-08-19T07:59:28;4.87;;;1.80;;
55312;SDS011;46892;45.668;11.756;2022-08-19T08:01:55;5.70;;;1.90;;
55312;SDS011;46892;45.668;11.756;2022-08-19T08:04:21;7.13;;;2.23;;
55312;SDS011;46892;45.668;11.756;2022-08-19T08:07:06;5.53;;;2.00;;
55312;SDS011;46892;45.668;11.756;2022-08-19T08:09:51;5.47;;;1.80;;
55312;SDS011;46892;45.668;11.756;2022-08-19T08:12:25;4.37;;;2.00;;
55312;SDS011;46892;45.668;11.756;2022-08-19T08:14:57;4.50;;;1.90;;
55312;SDS011;46892;45.668;11.756;2022-08-19T08:17:27;6.63;;;2.40;;
55312;SDS011;46892;45.668;11.756;2022-08-19T08:19:53;6.17;;;2.30;;
55312;SDS011;46892;45.668;11.756;2022-08-19T08:22:20;7.53;;;2.43;;
55312;SDS011;46892;45.668;11.756;2022-08-19T08:27:36;4.83;;;2.13;;
55312;SDS011;46892;45.668;11.756;2022-08-19T08:30:12;8.30;;;3.00;;
55312;SDS011;46892;45.668;11.756;2022-08-19T08:32:41;6.00;;;2.67;;
55312;SDS011;46892;45.668;11.756;2022-08-19T08:35:08;9.00;;;4.67;;
55312;SDS011;46892;45.668;11.756;2022-08-19T08:37:35;8.33;;;4.30;;
55312;SDS011;46892;45.668;11.756;2022-08-19T08:40:07;6.87;;;2.93;;
55312;SDS011;46892;45.668;11.756;2022-08-19T08:42:46;6.73;;;3.27;;
55312;SDS011;46892;45.668;11.756;2022-08-19T08:45:20;6.80;;;2.75;;
55312;SDS011;46892;45.668;11.756;2022-08-19T08:47:49;8.87;;;2.40;;
55312;SDS011;46892;45.668;11.756;2022-08-19T08:50:21;6.33;;;3.13;;
55312;SDS011;46892;45.668;11.756;2022-08-19T08:52:55;9.57;;;3.13;;
55312;SDS011;46892;45.668;11.756;2022-08-19T08:55:26;7.73;;;2.57;;
55312;SDS011;46892;45.668;11.756;2022-08-19T08:58:04;6.23;;;2.70;;
55312;SDS011;46892;45.668;11.756;2022-08-19T09:00:38;8.93;;;2.80;;
55312;SDS011;46892;45.668;11.756;2022-08-19T09:03:24;6.17;;;2.70;;
55312;SDS011;46892;45.668;11.756;2022-08-19T09:06:02;8.27;;;2.30;;
55312;SDS011;46892;45.668;11.756;2022-08-19T09:16:59;4.40;;;1.80;;
55312;SDS011;46892;45.668;11.756;2022-08-19T09:19:28;6.93;;;2.07;;
55312;SDS011;46892;45.668;11.756;2022-08-19T09:21:54;5.13;;;2.20;;
55312;SDS011;46892;45.668;11.756;2022-08-19T09:24:20;4.17;;;1.70;;
55312;SDS011;46892;45.668;11.756;2022-08-19T09:26:46;3.43;;;1.37;;
55312;SDS011;46892;45.668;11.756;2022-08-19T09:29:11;4.23;;;1.57;;
55312;SDS011;46892;45.668;11.756;2022-08-19T09:31:37;5.77;;;2.00;;
55312;SDS011;46892;45.668;11.756;2022-08-19T09:34:03;5.33;;;1.60;;
55312;SDS011;46892;45.668;11.756;2022-08-19T09:36:30;5.53;;;1.60;;
55312;SDS011;46892;45.668;11.756;2022-08-19T09:39:04;5.80;;;1.83;;
55312;SDS011;46892;45.668;11.756;2022-08-19T09:41:31;2.93;;;1.23;;
55312;SDS011;46892;45.668;11.756;2022-08-19T09:43:57;4.37;;;1.40;;
55312;SDS011;46892;45.668;11.756;2022-08-19T09:46:24;4.97;;;1.77;;
55312;SDS011;46892;45.668;11.756;2022-08-19T09:48:52;3.90;;;1.30;;
55312;SDS011;46892;45.668;11.756;2022-08-19T09:51:22;5.77;;;1.70;;
55312;SDS011;46892;45.668;11.756;2022-08-19T09:53:51;3.00;;;1.10;;
55312;SDS011;46892;45.668;11.756;2022-08-19T09:56:19;5.97;;;1.50;;
55312;SDS011;46892;45.668;11.756;2022-08-19T09:58:46;3.27;;;1.60;;
55312;SDS011;46892;45.668;11.756;2022-08-19T10:01:19;4.33;;;1.30;;
55312;SDS011;46892;45.668;11.756;2022-08-19T10:03:47;6.97;;;2.13;;
55312;SDS011;46892;45.668;11.756;2022-08-19T10:06:14;5.73;;;1.73;;
55312;SDS011;46892;45.668;11.756;2022-08-19T10:08:41;5.67;;;1.80;;
55312;SDS011;46892;45.668;11.756;2022-08-19T10:11:06;6.33;;;1.70;;
55312;SDS011;46892;45.668;11.756;2022-08-19T10:13:35;5.33;;;1.73;;
55312;SDS011;46892;45.668;11.756;2022-08-19T10:16:03;4.67;;;1.50;;
55312;SDS011;46892;45.668;11.756;2022-08-19T10:18:31;2.85;;;1.20;;
55312;SDS011;46892;45.668;11.756;2022-08-19T10:23:52;6.27;;;1.73;;
55312;SDS011;46892;45.668;11.756;2022-08-19T10:26:24;4.63;;;1.85;;
55312;SDS011;46892;45.668;11.756;2022-08-19T10:28:52;4.03;;;1.67;;
55312;SDS011;46892;45.668;11.756;2022-08-19T10:31:19;5.33;;;1.60;;
55312;SDS011;46892;45.668;11.756;2022-08-19T10:33:48;5.47;;;1.30;;
55312;SDS011;46892;45.668;11.756;2022-08-19T10:36:16;5.40;;;1.57;;
55312;SDS011;46892;45.668;11.756;2022-08-19T10:38:44;3.23;;;1.37;;
55312;SDS011;46892;45.668;11.756;2022-08-19T10:41:13;3.63;;;1.67;;
55312;SDS011;46892;45.668;11.756;2022-08-19T10:43:44;3.87;;;1.40;;
55312;SDS011;46892;45.668;11.756;2022-08-19T10:46:14;4.40;;;1.50;;
55312;SDS011;46892;45.668;11.756;2022-08-19T10:48:41;4.93;;;1.60;;
55312;SDS011;46892;45.668;11.756;2022-08-19T10:51:07;4.28;;;1.60;;
55312;SDS011;46892;45.668;11.756;2022-08-19T10:53:52;2.45;;;1.05;;
55312;SDS011;46892;45.668;11.756;2022-08-19T10:56:18;4.13;;;1.77;;
55312;SDS011;46892;45.668;11.756;2022-08-19T10:59:03;3.90;;;1.25;;
55312;SDS011;46892;45.668;11.756;2022-08-19T11:01:30;7.68;;;1.40;;
55312;SDS011;46892;45.668;11.756;2022-08-19T11:03:57;4.85;;;1.45;;
55312;SDS011;46892;45.668;11.756;2022-08-19T11:06:24;3.70;;;1.20;;
55312;SDS011;46892;45.668;11.756;2022-08-19T11:08:51;2.20;;;1.33;;
55312;SDS011;46892;45.668;11.756;2022-08-19T11:11:17;2.88;;;1.13;;
55312;SDS011;46892;45.668;11.756;2022-08-19T11:13:43;3.60;;;1.40;;
55312;SDS011;46892;45.668;11.756;2022-08-19T11:16:12;4.90;;;1.42;;
55312;SDS011;46892;45.668;11.756;2022-08-19T11:18:44;3.90;;;1.33;;
55312;SDS011;46892;45.668;11.756;2022-08-19T11:21:13;4.35;;;1.30;;
55312;SDS011;46892;45.668;11.756;2022-08-19T11:23:45;4.00;;;1.77;;
55312;SDS011;46892;45.668;11.756;2022-08-19T11:26:12;4.97;;;1.70;;
55312;SDS011;46892;45.668;11.756;2022-08-19T11:28:38;4.80;;;1.65;;
55312;SDS011;46892;45.668;11.756;2022-08-19T11:31:08;3.30;;;1.40;;
55312;SDS011;46892;45.668;11.756;2022-08-19T11:33:36;5.10;;;1.50;;
55312;SDS011;46892;45.668;11.756;2022-08-19T11:36:02;3.33;;;1.55;;
55312;SDS011;46892;45.668;11.756;2022-08-19T11:38:28;4.63;;;1.60;;
55312;SDS011;46892;45.668;11.756;2022-08-19T11:40:58;4.22;;;1.20;;
55312;SDS011;46892;45.668;11.756;2022-08-19T11:43:25;2.13;;;1.25;;
55312;SDS011;46892;45.668;11.756;2022-08-19T11:45:52;3.00;;;1.58;;
55312;SDS011;46892;45.668;11.756;2022-08-19T11:48:19;5.05;;;1.42;;
55312;SDS011;46892;45.668;11.756;2022-08-19T11:50:51;5.50;;;1.35;;
55312;SDS011;46892;45.668;11.756;2022-08-19T11:53:20;3.97;;;1.50;;
55312;SDS011;46892;45.668;11.756;2022-08-19T11:55:46;3.95;;;1.50;;
55312;SDS011;46892;45.668;11.756;2022-08-19T11:58:13;3.33;;;1.10;;
55312;SDS011;46892;45.668;11.756;2022-08-19T12:00:40;5.68;;;1.83;;
55312;SDS011;46892;45.668;11.756;2022-08-19T12:03:07;5.28;;;1.30;;
55312;SDS011;46892;45.668;11.756;2022-08-19T12:05:33;3.00;;;1.30;;
55312;SDS011;46892;45.668;11.756;2022-08-19T12:08:01;4.50;;;1.33;;
55312;SDS011;46892;45.668;11.756;2022-08-19T12:10:27;3.80;;;1.55;;
55312;SDS011;46892;45.668;11.756;2022-08-19T12:12:52;5.38;;;1.98;;
55312;SDS011;46892;45.668;11.756;2022-08-19T12:15:18;6.70;;;1.88;;
55312;SDS011;46892;45.668;11.756;2022-08-19T12:17:43;4.38;;;1.50;;
55312;SDS011;46892;45.668;11.756;2022-08-19T12:20:10;3.55;;;1.40;;
55312;SDS011;46892;45.668;11.756;2022-08-19T12:22:38;4.60;;;1.52;;
55312;SDS011;46892;45.668;11.756;2022-08-19T12:25:08;6.65;;;1.63;;
55312;SDS011;46892;45.668;11.756;2022-08-19T12:27:35;4.65;;;1.55;;
55312;SDS011;46892;45.668;11.756;2022-08-19T12:30:04;3.43;;;1.30;;
55312;SDS011;46892;45.668;11.756;2022-08-19T12:32:31;4.65;;;1.52;;
55312;SDS011;46892;45.668;11.756;2022-08-19T12:34:57;5.88;;;1.20;;
55312;SDS011;46892;45.668;11.756;2022-08-19T12:37:22;3.35;;;1.23;;
55312;SDS011;46892;45.668;11.756;2022-08-19T12:39:48;4.38;;;1.27;;
55312;SDS011;46892;45.668;11.756;2022-08-19T12:42:14;4.80;;;1.40;;
55312;SDS011;46892;45.668;11.756;2022-08-19T12:44:40;1.45;;;0.70;;
55312;SDS011;46892;45.668;11.756;2022-08-19T12:58:50;4.38;;;0.88;;
55312;SDS011;46892;45.668;11.756;2022-08-19T13:01:16;2.17;;;0.90;;
55312;SDS011;46892;45.668;11.756;2022-08-19T13:03:44;3.10;;;1.00;;
55312;SDS011;46892;45.668;11.756;2022-08-19T13:06:10;2.50;;;1.05;;
55312;SDS011;46892;45.668;11.756;2022-08-19T13:08:36;4.63;;;1.17;;
55312;SDS011;46892;45.668;11.756;2022-08-19T13:11:36;2.28;;;0.90;;
55312;SDS011;46892;45.668;11.756;2022-08-19T13:14:00;3.60;;;1.67;;
55312;SDS011;46892;45.668;11.756;2022-08-19T13:16:26;2.95;;;1.00;;
55312;SDS011;46892;45.668;11.756;2022-08-19T13:18:53;3.10;;;0.90;;
55312;SDS011;46892;45.668;11.756;2022-08-19T13:21:20;2.80;;;1.00;;
55312;SDS011;46892;45.668;11.756;2022-08-19T13:23:48;1.73;;;1.00;;
55312;SDS011;46892;45.668;11.756;2022-08-19T13:26:14;3.28;;;1.25;;
55312;SDS011;46892;45.668;11.756;2022-08-19T13:28:41;3.28;;;1.17;;
55312;SDS011;46892;45.668;11.756;2022-08-19T13:31:27;3.10;;;1.10;;
55312;SDS011;46892;45.668;11.756;2022-08-19T13:34:13;4.38;;;1.33;;
55312;SDS011;46892;45.668;11.756;2022-08-19T13:36:39;2.47;;;0.93;;
55312;SDS011;46892;45.668;11.756;2022-08-19T13:39:05;4.03;;;1.35;;
55312;SDS011;46892;45.668;11.756;2022-08-19T13:41:33;3.65;;;1.40;;
55312;SDS011;46892;45.668;11.756;2022-08-19T13:43:59;2.30;;;1.10;;
55312;SDS011;46892;45.668;11.756;2022-08-19T13:46:25;5.50;;;1.50;;
55312;SDS011;46892;45.668;11.756;2022-08-19T13:48:52;3.47;;;1.60;;
55312;SDS011;46892;45.668;11.756;2022-08-19T13:51:18;4.63;;;1.50;;
55312;SDS011;46892;45.668;11.756;2022-08-19T13:53:44;3.38;;;1.55;;
55312;SDS011;46892;45.668;11.756;2022-08-19T13:56:11;3.83;;;1.70;;
55312;SDS011;46892;45.668;11.756;2022-08-19T13:58:38;2.42;;;1.10;;
55312;SDS011;46892;45.668;11.756;2022-08-19T14:01:05;3.97;;;1.50;;
55312;SDS011;46892;45.668;11.756;2022-08-19T14:03:31;3.90;;;1.60;;
55312;SDS011;46892;45.668;11.756;2022-08-19T14:05:58;3.70;;;1.48;;
55312;SDS011;46892;45.668;11.756;2022-08-19T14:08:24;3.85;;;1.63;;
55312;SDS011;46892;45.668;11.756;2022-08-19T14:10:52;4.10;;;1.60;;
55312;SDS011;46892;45.668;11.756;2022-08-19T14:13:19;2.95;;;1.30;;
55312;SDS011;46892;45.668;11.756;2022-08-19T14:15:47;5.68;;;1.70;;
55312;SDS011;46892;45.668;11.756;2022-08-19T14:18:13;4.25;;;1.27;;
55312;SDS011;46892;45.668;11.756;2022-08-19T14:20:40;2.67;;;0.98;;
55312;SDS011;46892;45.668;11.756;2022-08-19T14:23:06;2.53;;;1.20;;
55312;SDS011;46892;45.668;11.756;2022-08-19T14:25:32;2.38;;;0.93;;
55312;SDS011;46892;45.668;11.756;2022-08-19T14:27:59;4.35;;;1.27;;
55312;SDS011;46892;45.668;11.756;2022-08-19T14:30:29;2.03;;;1.10;;
55312;SDS011;46892;45.668;11.756;2022-08-19T14:32:57;2.85;;;1.10;;
55312;SDS011;46892;45.668;11.756;2022-08-19T14:35:24;2.53;;;0.80;;
55312;SDS011;46892;45.668;11.756;2022-08-19T14:37:52;2.33;;;0.90;;
55312;SDS011;46892;45.668;11.756;2022-08-19T14:40:23;2.65;;;1.20;;
55312;SDS011;46892;45.668;11.756;2022-08-19T14:42:57;4.53;;;1.30;;
55312;SDS011;46892;45.668;11.756;2022-08-19T14:45:30;3.75;;;1.30;;
55312;SDS011;46892;45.668;11.756;2022-08-19T14:47:58;2.90;;;1.27;;
55312;SDS011;46892;45.668;11.756;2022-08-19T14:50:25;2.20;;;1.05;;
55312;SDS011;46892;45.668;11.756;2022-08-19T14:52:57;3.03;;;1.00;;
55312;SDS011;46892;45.668;11.756;2022-08-19T14:55:24;3.05;;;1.40;;
55312;SDS011;46892;45.668;11.756;2022-08-19T14:57:50;4.25;;;1.30;;
55312;SDS011;46892;45.668;11.756;2022-08-19T15:00:16;5.00;;;1.02;;
55312;SDS011;46892;45.668;11.756;2022-08-19T15:02:42;7.95;;;1.40;;
55312;SDS011;46892;45.668;11.756;2022-08-19T15:05:10;5.28;;;1.13;;
55312;SDS011;46892;45.668;11.756;2022-08-19T15:07:37;3.67;;;1.10;;
55312;SDS011;46892;45.668;11.756;2022-08-19T15:10:04;4.65;;;1.10;;